Terminal Aerodrome Forecast
Issued by NWS Shreveport, LA

Home | Current Version | Previous Version | Text Only | Print | Product List | Glossary On
Versions: 1 2 3 4 5 6 7 8 9 10 11 12 13 14 15 16 17
280
FTUS44 KSHV 251120
TAFTXK
TAF
KTXK 251120Z 2512/2612 VRB03KT P6SM SKC
     FM251500 18011KT P6SM SKC
     FM251800 19014G19KT P6SM SKC
     FM260000 17009KT P6SM SKC
     FM261100 19011KT P6SM SCT015=

USA.gov is the U.S. government's official web portal to all federal, state and local government web resources and services.